Norfolk, Virginia
Traffic Map
Current Weather Conditions
Norfolk, Virginia
Clear
Clear
41°
Feels Like: 33°
Wind Chill: 33° Ceiling: Unl
Heat Index: 41° Visibility: 10mi
Dew Point: 27° Wind: 16mph
Humidity: 57% Direction: 350° (N)
Pressure: 30.09in Gusts: 23mph
Raw Report DataKORF 181151Z 35014G20KT 10SM CLR 05/M03 A3009 RMK AO2 SLP187 T00501028 10067 20050 53027
Traffic Incident Summary
Active as of:
Severity:
Category:
InformationThere was an issue retrieving the traffic information for this location. Please try a different location or try again shortly.
Advertisements